createdAt,value
2023-01-02T00:00:31.937Z,79.92
2023-01-02T00:02:59.661Z,78.40
2023-01-02T00:05:27.694Z,82.06
2023-01-02T00:07:55.241Z,80.98
2023-01-02T00:10:22.888Z,79.40
2023-01-02T00:12:50.257Z,81.54
2023-01-02T00:15:17.603Z,80.13
2023-01-02T00:17:45.235Z,79.62
2023-01-02T00:20:12.620Z,77.48
2023-01-02T00:22:39.978Z,81.02
2023-01-02T00:25:07.839Z,82.53
2023-01-02T00:27:35.217Z,81.15
2023-01-02T00:30:02.753Z,80.74
2023-01-02T00:32:30.692Z,80.68
2023-01-02T00:34:58.050Z,81.13
2023-01-02T00:37:25.714Z,83.45
2023-01-02T00:39:53.359Z,80.16
2023-01-02T00:42:20.730Z,84.30
2023-01-02T00:44:48.110Z,80.80
2023-01-02T00:47:15.747Z,80.80
2023-01-02T00:49:43.680Z,83.20
2023-01-02T00:52:11.042Z,82.14
2023-01-02T00:54:38.664Z,82.76
2023-01-02T00:57:06.105Z,80.16
2023-01-02T00:59:34.074Z,81.02
2023-01-02T01:02:01.758Z,78.62
2023-01-02T01:04:29.225Z,80.04
2023-01-02T01:06:56.692Z,86.40
2023-01-02T01:09:24.309Z,82.36
2023-01-02T01:11:52.115Z,87.19
2023-01-02T01:14:19.484Z,84.97
2023-01-02T01:16:47.130Z,87.06
2023-01-02T01:19:14.659Z,85.51
2023-01-02T01:21:42.103Z,83.44
2023-01-02T01:24:10.395Z,81.75
2023-01-02T01:26:37.743Z,78.84
2023-01-02T01:29:05.225Z,79.00
2023-01-02T01:31:32.936Z,77.74
2023-01-02T01:34:00.292Z,76.69
2023-01-02T01:36:27.730Z,80.11
2023-01-02T01:38:55.486Z,81.41
2023-01-02T01:41:23.846Z,78.99
2023-01-02T01:43:55.035Z,80.34
2023-01-02T01:46:37.420Z,81.35
2023-01-02T01:49:13.961Z,85.15
2023-01-02T01:52:06.350Z,83.11
2023-01-02T01:54:38.826Z,84.36
2023-01-02T01:57:23.060Z,84.95
2023-01-02T01:59:50.403Z,85.04
2023-01-02T02:02:18.207Z,81.68
2023-01-02T02:04:46.042Z,83.53
2023-01-02T02:07:13.417Z,85.46
2023-01-02T02:09:49.138Z,84.19
2023-01-02T02:12:19.701Z,85.72
2023-01-02T02:14:50.607Z,82.20
2023-01-02T02:17:41.211Z,83.95
2023-01-02T02:20:20.484Z,83.36
2023-01-02T02:23:06.894Z,87.05
2023-01-02T02:25:55.826Z,88.92
2023-01-02T02:28:39.447Z,86.35
2023-01-02T02:31:22.017Z,84.92
2023-01-02T02:33:59.198Z,85.37
2023-01-02T02:36:45.295Z,83.71
2023-01-02T02:39:24.901Z,84.77
2023-01-02T02:42:26.070Z,82.66
2023-01-02T02:45:02.014Z,81.17
2023-01-02T02:47:51.586Z,83.33
2023-01-02T02:50:37.404Z,83.59
2023-01-02T02:53:09.167Z,85.91
2023-01-02T02:55:43.923Z,80.43
2023-01-02T02:58:12.358Z,81.57
2023-01-02T03:00:40.032Z,84.07
2023-01-02T03:03:21.710Z,80.20
2023-01-02T03:06:18.559Z,85.19
2023-01-02T03:09:13.706Z,82.61
2023-01-02T03:12:23.355Z,88.82
2023-01-02T03:15:15.533Z,84.42
2023-01-02T03:17:54.593Z,84.21
2023-01-02T03:20:23.227Z,85.29
2023-01-02T03:22:53.097Z,82.22
2023-01-02T03:25:20.858Z,87.80
2023-01-02T03:27:48.286Z,85.20
2023-01-02T03:30:22.299Z,86.43
2023-01-02T03:32:54.543Z,89.33
2023-01-02T03:35:28.172Z,85.35
2023-01-02T03:37:57.032Z,86.52
2023-01-02T03:40:45.878Z,87.85
2023-01-02T03:43:16.763Z,83.10
2023-01-02T03:45:48.499Z,84.38
2023-01-02T03:48:34.243Z,87.85
2023-01-02T03:51:01.878Z,88.79
2023-01-02T03:53:29.236Z,87.55
2023-01-02T03:56:08.929Z,89.77
2023-01-02T03:58:57.588Z,89.77
2023-01-02T04:01:49.641Z,92.05
2023-01-02T04:04:38.794Z,88.38
2023-01-02T04:07:08.750Z,86.49
2023-01-02T04:09:36.419Z,88.88
2023-01-02T04:12:08.563Z,84.89
2023-01-02T04:14:38.940Z,88.99
2023-01-02T04:17:08.320Z,91.43
2023-01-02T04:19:38.976Z,89.62
2023-01-02T04:22:10.136Z,85.06
2023-01-02T04:24:40.507Z,82.65
2023-01-02T04:27:23.349Z,85.93
2023-01-02T04:29:50.961Z,85.21
2023-01-02T04:32:43.929Z,86.48
2023-01-02T04:35:16.963Z,83.34
2023-01-02T04:37:44.580Z,87.16
2023-01-02T04:40:26.170Z,87.43
2023-01-02T04:42:53.647Z,86.55
2023-01-02T04:45:21.364Z,85.94
2023-01-02T04:47:48.872Z,89.03
2023-01-02T04:50:16.340Z,87.27
2023-01-02T04:52:43.922Z,84.31
2023-01-02T04:55:11.377Z,89.89
2023-01-02T04:57:38.789Z,89.20
2023-01-02T05:00:07.299Z,88.54
2023-01-02T05:02:36.374Z,83.76
2023-01-02T05:05:04.217Z,85.27
2023-01-02T05:07:33.657Z,84.56
2023-01-02T05:10:01.142Z,84.96
2023-01-02T05:12:28.481Z,83.09
2023-01-02T05:14:56.120Z,88.23
2023-01-02T05:17:23.526Z,84.70
2023-01-02T05:19:50.877Z,86.87
2023-01-02T05:22:37.286Z,88.59
2023-01-02T05:25:05.823Z,84.44
2023-01-02T05:27:34.003Z,83.18
2023-01-02T05:30:01.383Z,82.70
2023-01-02T05:32:28.721Z,82.45
2023-01-02T05:34:57.395Z,80.92
2023-01-02T05:37:24.787Z,81.39
2023-01-02T05:39:52.154Z,86.84
2023-01-02T05:42:19.763Z,85.67
2023-01-02T05:44:47.330Z,87.46
2023-01-02T05:47:16.552Z,86.39
2023-01-02T05:49:44.469Z,82.55
2023-01-02T05:52:11.913Z,83.30
2023-01-02T05:54:39.295Z,82.69
2023-01-02T05:57:06.965Z,81.67
2023-01-02T05:59:36.258Z,81.92
2023-01-02T06:02:04.029Z,82.19
2023-01-02T06:04:31.716Z,80.13
2023-01-02T06:06:59.351Z,79.85
2023-01-02T06:09:26.819Z,82.40
2023-01-02T06:11:54.443Z,82.84
2023-01-02T06:14:24.040Z,81.34
2023-01-02T06:16:51.403Z,79.47
2023-01-02T06:19:19.005Z,83.63
2023-01-02T06:21:46.847Z,80.99
2023-01-02T06:24:14.204Z,79.65
2023-01-02T06:26:41.799Z,80.57
2023-01-02T06:29:09.179Z,77.74
2023-01-02T06:31:39.720Z,79.92
2023-01-02T06:34:07.657Z,79.71
2023-01-02T06:36:35.036Z,78.72
2023-01-02T06:39:02.499Z,80.29
2023-01-02T06:41:30.183Z,79.11
2023-01-02T06:43:57.561Z,83.69
2023-01-02T06:46:25.142Z,85.30
2023-01-02T06:48:52.784Z,82.50
2023-01-02T06:51:21.722Z,79.67
2023-01-02T06:53:49.180Z,77.88
2023-01-02T06:56:17.425Z,80.84
2023-01-02T06:58:44.907Z,79.63
2023-01-02T07:01:22.454Z,81.11
2023-01-02T07:03:50.270Z,79.76
2023-01-02T07:06:19.551Z,80.78
2023-01-02T07:08:47.289Z,79.09
2023-01-02T07:11:16.781Z,80.30
2023-01-02T07:13:45.733Z,84.03
2023-01-02T07:16:14.711Z,80.82
2023-01-02T07:18:42.471Z,84.77
2023-01-02T07:21:10.211Z,81.81
2023-01-02T07:23:37.635Z,79.93
2023-01-02T07:26:05.905Z,80.75
2023-01-02T07:28:33.457Z,78.01
2023-01-02T07:31:02.363Z,81.27
2023-01-02T07:33:30.260Z,81.62
2023-01-02T07:36:02.012Z,78.51
2023-01-02T07:38:29.666Z,78.41
2023-01-02T07:40:57.061Z,78.78
2023-01-02T07:43:24.463Z,75.93
2023-01-02T07:45:52.163Z,78.25
2023-01-02T07:48:19.761Z,79.83
2023-01-02T07:50:47.108Z,76.56
2023-01-02T07:53:14.726Z,83.20
2023-01-02T07:55:42.130Z,79.77
2023-01-02T07:58:09.484Z,77.50
2023-01-02T08:00:37.275Z,75.69
2023-01-02T08:03:06.046Z,79.56
2023-01-02T08:05:34.258Z,78.02
2023-01-02T08:08:01.595Z,82.58
2023-01-02T08:10:29.221Z,82.75
2023-01-02T08:12:57.451Z,78.66
2023-01-02T08:15:25.401Z,78.60
2023-01-02T08:17:53.119Z,77.04
2023-01-02T08:20:20.468Z,75.39
2023-01-02T08:22:47.870Z,78.44
2023-01-02T08:25:16.733Z,80.66
2023-01-02T08:27:44.183Z,81.47
2023-01-02T08:30:11.842Z,83.28
2023-01-02T08:32:39.828Z,81.12
2023-01-02T08:35:07.647Z,81.86
2023-01-02T08:37:35.126Z,81.34
2023-01-02T08:40:02.856Z,79.39
2023-01-02T08:42:30.254Z,81.12
2023-01-02T08:44:57.729Z,79.17
2023-01-02T08:47:25.412Z,78.28
2023-01-02T08:49:52.952Z,77.88
2023-01-02T08:52:20.324Z,75.52
2023-01-02T08:54:47.916Z,77.46
2023-01-02T08:57:15.273Z,76.42
2023-01-02T08:59:42.638Z,75.82
2023-01-02T09:02:14.421Z,75.06
2023-01-02T09:04:41.939Z,75.23
2023-01-02T09:07:09.717Z,72.49
2023-01-02T09:09:37.188Z,76.33
2023-01-02T09:12:04.814Z,75.80
2023-01-02T09:14:32.499Z,74.94
2023-01-02T09:16:59.937Z,75.49
2023-01-02T09:19:27.393Z,76.59
2023-01-02T09:21:55.135Z,75.30
2023-01-02T09:24:22.473Z,76.23
2023-01-02T09:26:49.897Z,74.97
2023-01-02T09:29:17.609Z,79.43
2023-01-02T09:31:45.062Z,80.19
2023-01-02T09:34:12.614Z,77.65
2023-01-02T09:36:40.269Z,77.57
2023-01-02T09:39:08.841Z,79.38
2023-01-02T09:41:37.185Z,77.47
2023-01-02T09:44:27.425Z,77.05
2023-01-02T09:46:54.699Z,79.48
2023-01-02T09:49:24.476Z,75.91
2023-01-02T09:51:51.943Z,77.99
2023-01-02T09:54:26.808Z,76.01
2023-01-02T09:57:14.530Z,73.64
2023-01-02T10:00:04.829Z,74.77
2023-01-02T10:02:56.741Z,75.70
2023-01-02T10:05:42.874Z,75.72
2023-01-02T10:08:37.890Z,76.22
2023-01-02T10:11:17.613Z,76.10
2023-01-02T10:16:44.868Z,78.58
2023-01-02T10:19:42.898Z,77.85
2023-01-02T10:22:13.718Z,80.69
2023-01-02T10:25:18.933Z,77.19
2023-01-02T10:27:49.776Z,74.93
2023-01-02T10:30:24.851Z,73.41
2023-01-02T10:32:58.631Z,74.34
2023-01-02T10:35:32.857Z,73.30
2023-01-02T10:38:00.666Z,70.33
2023-01-02T10:40:28.090Z,76.47
2023-01-02T10:42:59.888Z,74.30
2023-01-02T10:45:27.896Z,73.74
2023-01-02T10:47:55.248Z,72.35
2023-01-02T10:50:25.503Z,70.91
2023-01-02T10:52:54.502Z,73.72
2023-01-02T10:55:37.521Z,74.84
2023-01-02T10:58:06.567Z,72.56
2023-01-02T11:00:35.331Z,72.75
2023-01-02T11:03:12.783Z,74.22
2023-01-02T11:05:48.352Z,72.62
2023-01-02T11:08:17.803Z,71.73
2023-01-02T11:10:45.592Z,76.25
2023-01-02T11:13:14.719Z,74.02
2023-01-02T11:15:58.255Z,75.10
2023-01-02T11:18:27.278Z,72.91
2023-01-02T11:20:56.968Z,71.46
2023-01-02T11:23:25.488Z,72.43
2023-01-02T11:25:53.175Z,76.48
2023-01-02T11:28:25.711Z,77.97
2023-01-02T11:30:54.566Z,78.65
2023-01-02T11:33:24.844Z,79.23
2023-01-02T11:36:04.560Z,80.65
2023-01-02T11:38:44.061Z,79.08
2023-01-02T11:41:25.817Z,81.21
2023-01-02T11:43:57.276Z,76.17
2023-01-02T11:46:30.026Z,74.68
2023-01-02T11:49:07.689Z,74.18
2023-01-02T11:51:35.798Z,74.46
2023-01-02T11:54:05.023Z,71.92
2023-01-02T11:56:34.926Z,71.71
2023-01-02T11:59:11.957Z,72.40
2023-01-02T12:01:48.258Z,73.04
2023-01-02T12:04:16.068Z,73.63
2023-01-02T12:07:27.941Z,74.86
2023-01-02T12:10:08.850Z,72.35
2023-01-02T12:12:36.091Z,74.69
2023-01-02T12:15:06.561Z,74.65
2023-01-02T12:17:39.634Z,75.80
2023-01-02T12:20:30.516Z,75.14
2023-01-02T12:23:34.315Z,74.76
2023-01-02T12:26:09.685Z,74.04
2023-01-02T12:28:55.763Z,73.22
2023-01-02T12:31:29.307Z,74.69
2023-01-02T12:34:20.758Z,73.35
2023-01-02T12:37:10.307Z,72.58
2023-01-02T12:39:54.326Z,75.62
2023-01-02T12:43:01.742Z,72.66
2023-01-02T12:45:59.971Z,71.36
2023-01-02T12:48:54.958Z,71.04
2023-01-02T12:51:47.228Z,72.08
2023-01-02T12:54:36.608Z,69.18
2023-01-02T12:57:24.334Z,71.46
2023-01-02T13:00:16.448Z,71.60
2023-01-02T13:03:00.228Z,71.21
2023-01-02T13:05:31.323Z,70.51
2023-01-02T13:08:19.793Z,69.60
2023-01-02T13:10:47.452Z,71.26
2023-01-02T13:13:14.826Z,69.61
2023-01-02T13:15:44.262Z,72.10
2023-01-02T13:18:24.082Z,71.44
2023-01-02T13:20:53.726Z,74.20
2023-01-02T13:23:43.920Z,72.85
2023-01-02T13:26:13.134Z,71.20
2023-01-02T13:28:54.312Z,70.01
2023-01-02T13:31:48.581Z,69.83
2023-01-02T13:34:25.883Z,70.41
2023-01-02T13:37:10.200Z,68.93
2023-01-02T13:39:40.684Z,69.07
2023-01-02T13:42:38.581Z,70.20
2023-01-02T13:45:14.452Z,71.04
2023-01-02T13:47:50.998Z,71.08
2023-01-02T13:50:25.320Z,70.27
2023-01-02T13:53:20.861Z,70.47
2023-01-02T13:56:12.620Z,69.88
2023-01-02T13:58:41.904Z,70.14
2023-01-02T14:01:21.603Z,69.64
2023-01-02T14:04:07.731Z,69.72
2023-01-02T14:06:53.371Z,72.05
2023-01-02T14:09:22.424Z,72.70
2023-01-02T14:11:59.741Z,70.94
2023-01-02T14:14:44.708Z,70.86
2023-01-02T14:17:15.270Z,69.71
2023-01-02T14:19:43.625Z,69.74
2023-01-02T14:22:13.228Z,69.67
2023-01-02T14:24:50.252Z,69.37
2023-01-02T14:27:32.310Z,69.10
2023-01-02T14:30:08.747Z,69.82
2023-01-02T14:32:40.838Z,69.37
2023-01-02T14:35:23.452Z,69.85
2023-01-02T14:37:54.953Z,70.21
2023-01-02T14:40:22.116Z,72.67
2023-01-02T14:43:11.993Z,74.37
2023-01-02T14:45:44.729Z,75.46
2023-01-02T14:48:15.593Z,75.30
2023-01-02T14:50:43.471Z,77.40
2023-01-02T14:53:20.163Z,79.37
2023-01-02T14:55:47.789Z,79.10
2023-01-02T14:58:22.408Z,77.17
2023-01-02T15:00:50.046Z,76.28
2023-01-02T15:03:17.832Z,82.82
2023-01-02T15:05:49.682Z,79.98
2023-01-02T15:08:20.163Z,77.11
2023-01-02T15:11:35.556Z,78.02
2023-01-02T15:14:06.227Z,77.92
2023-01-02T15:16:38.258Z,77.17
2023-01-02T15:19:05.932Z,77.09
2023-01-02T15:21:34.302Z,79.51
2023-01-02T15:24:04.065Z,77.70
2023-01-02T15:26:35.880Z,77.41
2023-01-02T15:29:05.166Z,77.91
2023-01-02T15:31:33.089Z,77.29
2023-01-02T15:34:00.679Z,77.02
2023-01-02T15:36:37.880Z,78.57
2023-01-02T15:39:14.244Z,78.29
2023-01-02T15:41:43.609Z,77.63
2023-01-02T15:44:30.198Z,77.73
2023-01-02T15:46:57.710Z,76.69
2023-01-02T15:49:25.253Z,75.83
2023-01-02T15:51:52.681Z,75.60
2023-01-02T15:54:20.169Z,76.32
2023-01-02T15:56:47.798Z,76.94
2023-01-02T15:59:30.233Z,79.97
2023-01-02T16:01:57.966Z,82.18
2023-01-02T16:04:30.103Z,83.69
2023-01-02T16:06:58.419Z,79.08
2023-01-02T16:09:27.924Z,80.12
2023-01-02T16:11:57.391Z,80.91
2023-01-02T16:14:37.232Z,79.09
2023-01-02T16:17:05.647Z,78.20
2023-01-02T16:19:34.302Z,78.28
2023-01-02T16:22:10.748Z,78.13
2023-01-02T16:24:42.312Z,77.05
2023-01-02T16:27:13.454Z,77.30
2023-01-02T16:29:42.480Z,80.31
2023-01-02T16:32:27.177Z,78.93
2023-01-02T16:35:18.289Z,77.76
2023-01-02T16:37:55.611Z,81.81
2023-01-02T16:41:00.555Z,81.93
2023-01-02T16:43:16.294Z,81.11
2023-01-02T16:45:44.223Z,81.69
2023-01-02T16:48:13.920Z,80.16
2023-01-02T16:50:42.722Z,84.82
2023-01-02T16:53:12.907Z,87.75
2023-01-02T16:55:40.367Z,88.49
2023-01-02T16:58:07.747Z,86.94
2023-01-02T17:00:41.370Z,86.75
2023-01-02T17:03:18.683Z,87.51
2023-01-02T17:06:07.553Z,88.38
2023-01-02T17:08:34.964Z,84.03
2023-01-02T17:11:02.662Z,83.67
2023-01-02T17:13:30.001Z,87.17
2023-01-02T17:15:57.815Z,88.77
2023-01-02T17:18:25.628Z,85.83
2023-01-02T17:20:52.982Z,85.43
2023-01-02T17:23:21.082Z,84.51
2023-01-02T17:25:48.821Z,83.99
2023-01-02T17:28:16.330Z,83.16
2023-01-02T17:30:44.522Z,82.10
2023-01-02T17:33:13.286Z,81.09
2023-01-02T17:35:40.751Z,79.25
2023-01-02T17:38:08.139Z,78.66
2023-01-02T17:40:37.244Z,78.69
2023-01-02T17:43:04.927Z,77.35
2023-01-02T17:45:32.430Z,77.46
2023-01-02T17:48:07.417Z,76.82
2023-01-02T17:50:37.814Z,76.27
2023-01-02T17:53:07.928Z,75.85
2023-01-02T17:55:35.351Z,75.43
2023-01-02T17:58:03.887Z,76.26
2023-01-02T18:00:31.573Z,75.71
2023-01-02T18:02:59.353Z,75.31
2023-01-02T18:05:26.769Z,75.16
2023-01-02T18:07:54.123Z,74.80
2023-01-02T18:10:23.054Z,74.26
2023-01-02T18:12:53.539Z,74.30
2023-01-02T18:15:21.900Z,74.00
2023-01-02T18:17:49.646Z,74.64
2023-01-02T18:20:19.071Z,74.75
2023-01-02T18:22:49.888Z,74.40
2023-01-02T18:25:19.359Z,74.00
2023-01-02T18:27:47.566Z,74.00
2023-01-02T18:30:23.652Z,74.23
2023-01-02T18:32:57.352Z,74.13
2023-01-02T18:35:56.846Z,74.12
2023-01-02T18:38:38.050Z,74.47
2023-01-02T18:41:23.984Z,74.29
2023-01-02T18:43:54.989Z,73.71
2023-01-02T18:47:02.161Z,74.69
2023-01-02T18:49:22.015Z,75.71
2023-01-02T18:51:54.715Z,74.97
2023-01-02T18:54:28.882Z,75.05
2023-01-02T18:56:59.082Z,75.61
2023-01-02T18:59:29.427Z,74.83
2023-01-02T19:02:00.809Z,75.02
2023-01-02T19:04:35.161Z,74.95
2023-01-02T19:07:16.632Z,74.60
2023-01-02T19:09:44.241Z,74.66
2023-01-02T19:12:33.118Z,73.78
2023-01-02T19:15:22.651Z,74.09
2023-01-02T19:17:50.071Z,74.93
2023-01-02T19:20:17.741Z,74.41
2023-01-02T19:22:45.072Z,74.20
2023-01-02T19:25:19.001Z,74.19
2023-01-02T19:27:46.601Z,73.96
2023-01-02T19:30:29.937Z,74.03
2023-01-02T19:32:57.833Z,74.28
2023-01-02T19:35:25.020Z,74.11
2023-01-02T19:37:52.449Z,74.13
2023-01-02T19:40:21.599Z,74.51
2023-01-02T19:42:53.136Z,74.42
2023-01-02T19:45:24.622Z,74.08
2023-01-02T19:47:52.518Z,74.16
2023-01-02T19:50:25.375Z,74.27
2023-01-02T19:52:53.262Z,73.91
2023-01-02T19:55:20.661Z,75.22
2023-01-02T19:57:48.501Z,74.04
2023-01-02T20:00:16.899Z,74.11
2023-01-02T20:02:52.235Z,76.01
2023-01-02T20:05:22.523Z,75.80
2023-01-02T20:07:51.915Z,75.52
2023-01-02T20:10:19.265Z,75.18
2023-01-02T20:12:46.671Z,76.25
2023-01-02T20:15:19.562Z,75.18
2023-01-02T20:17:47.170Z,75.65
2023-01-02T20:20:19.847Z,76.25
2023-01-02T20:22:47.484Z,77.21
2023-01-02T20:25:15.787Z,76.83
2023-01-02T20:27:43.128Z,75.71
2023-01-02T20:30:11.361Z,75.41
2023-01-02T20:32:39.013Z,74.46
2023-01-02T20:35:06.603Z,74.57
2023-01-02T20:37:34.382Z,75.99
2023-01-02T20:40:02.004Z,76.56
2023-01-02T20:42:29.457Z,76.30
2023-01-02T20:44:56.819Z,75.13
2023-01-02T20:47:24.445Z,75.15
2023-01-02T20:49:51.843Z,75.64
2023-01-02T20:52:20.335Z,75.12
2023-01-02T20:57:18.281Z,74.92
2023-01-02T20:59:45.796Z,75.05
2023-01-02T21:02:13.589Z,76.25
2023-01-02T21:04:41.059Z,75.41
2023-01-02T21:07:08.607Z,74.94
2023-01-02T21:09:36.227Z,74.99
2023-01-02T21:12:03.795Z,75.01
2023-01-02T21:14:37.379Z,74.49
2023-01-02T21:17:05.495Z,74.98
2023-01-02T21:19:33.021Z,76.93
2023-01-02T21:22:00.513Z,77.72
2023-01-02T21:24:28.137Z,80.37
2023-01-02T21:26:55.538Z,79.33
2023-01-02T21:29:22.921Z,78.19
2023-01-02T21:31:50.613Z,77.88
2023-01-02T21:34:18.180Z,81.45
2023-01-02T21:36:45.611Z,81.05
2023-01-02T21:39:13.263Z,80.72
2023-01-02T21:42:00.152Z,80.62
2023-01-02T21:44:27.721Z,78.05
2023-01-02T21:46:55.244Z,81.06
2023-01-02T21:49:22.668Z,82.60
2023-01-02T21:51:52.664Z,80.76
2023-01-02T21:54:20.055Z,78.78
2023-01-02T21:56:47.474Z,78.77
2023-01-02T21:59:15.074Z,80.30
2023-01-02T22:01:42.608Z,82.44
2023-01-02T22:04:11.676Z,80.56
2023-01-02T22:06:57.115Z,82.38
2023-01-02T22:09:28.151Z,84.53
2023-01-02T22:11:55.503Z,83.58
2023-01-02T22:14:30.430Z,88.50
2023-01-02T22:17:06.023Z,83.70
2023-01-02T22:19:33.609Z,84.90
2023-01-02T22:22:01.576Z,86.40
2023-01-02T22:24:29.031Z,88.12
2023-01-02T22:26:58.165Z,86.67
2023-01-02T22:29:33.139Z,87.75
2023-01-02T22:32:11.799Z,85.71
2023-01-02T22:34:43.341Z,85.05
2023-01-02T22:37:13.656Z,83.39
2023-01-02T22:39:43.308Z,83.47
2023-01-02T22:42:59.687Z,81.69
2023-01-02T22:45:27.096Z,83.88
2023-01-02T22:47:58.570Z,81.83
2023-01-02T22:50:28.553Z,79.89
2023-01-02T22:52:56.097Z,79.30
2023-01-02T22:55:24.016Z,79.68
2023-01-02T22:57:52.158Z,78.88
2023-01-02T23:00:22.243Z,82.08
2023-01-02T23:02:50.107Z,81.68
2023-01-02T23:05:19.109Z,80.06
2023-01-02T23:07:46.635Z,80.46
2023-01-02T23:10:14.173Z,80.67
2023-01-02T23:12:41.837Z,78.67
2023-01-02T23:15:11.350Z,78.62
2023-01-02T23:17:57.744Z,78.45
2023-01-02T23:20:26.113Z,77.64
2023-01-02T23:22:53.498Z,76.38
2023-01-02T23:25:21.011Z,77.35
2023-01-02T23:27:48.745Z,76.52
2023-01-02T23:30:16.194Z,76.11
2023-01-02T23:32:45.189Z,76.91
2023-01-02T23:35:12.831Z,76.03
2023-01-02T23:37:40.199Z,76.03
2023-01-02T23:40:08.293Z,74.59
2023-01-02T23:42:35.940Z,75.92
2023-01-02T23:45:03.453Z,74.72
2023-01-02T23:47:31.358Z,76.03
2023-01-02T23:49:59.057Z,75.66
2023-01-02T23:52:26.430Z,77.14
2023-01-02T23:54:53.747Z,76.64
2023-01-02T23:57:21.405Z,78.17
2023-01-02T23:59:48.732Z,78.78
